Time;durP1;ratioP1;P1;durP2;ratioP2;P2;SDS_P1;SDS_P2;PMS_P1;PMS_P2;Temp;Humidity;BMP_temperature;BMP_pressure;BME280_temperature;BME280_humidity;BME280_pressure;Samples;Min_cycle;Max_cycle;Signal;HPM_P1;HPM_P2
2022/05/10 00:00:07;;;;;;;9.23;5.38;;;;;;;12.08;54.73;101340.09;4984011;28;20062;-76
2022/05/10 00:02:40;;;;;;;8.98;5.25;;;;;;;12.02;54.71;101334.78;4982742;28;20125;-76
2022/05/10 00:05:06;;;;;;;12.32;6.22;;;;;;;11.97;55.41;101325.97;4981615;28;20481;-75
2022/05/10 00:07:34;;;;;;;10.57;5.65;;;;;;;11.90;55.31;101329.50;4974392;28;20049;-75
2022/05/10 00:10:00;;;;;;;9.48;4.80;;;;;;;11.84;55.16;101333.88;4984006;28;20044;-75
2022/05/10 00:12:26;;;;;;;13.05;5.57;;;;;;;11.81;55.88;101332.97;4968430;28;20085;-75
2022/05/10 00:14:52;;;;;;;10.18;5.82;;;;;;;11.67;55.95;101327.66;4982676;28;20034;-76
2022/05/10 00:17:39;;;;;;;12.25;5.18;;;;;;;11.55;57.10;101323.25;4981620;28;20038;-76
2022/05/10 00:20:08;;;;;;;8.10;4.95;;;;;;;11.53;56.21;101322.34;4982996;28;20056;-76
2022/05/10 00:22:33;;;;;;;12.05;5.88;;;;;;;11.49;56.37;101317.91;4984164;28;20038;-76
2022/05/10 00:24:58;;;;;;;8.52;5.60;;;;;;;11.48;56.47;101323.22;4963221;28;20418;-75
2022/05/10 00:27:24;;;;;;;12.65;6.30;;;;;;;11.48;56.61;101320.56;4983658;28;20080;-76
2022/05/10 00:29:49;;;;;;;9.43;5.47;;;;;;;11.46;56.34;101317.03;4981720;28;20497;-76
2022/05/10 00:32:15;;;;;;;11.80;5.40;;;;;;;11.36;57.12;101324.94;4981856;28;20038;-75
2022/05/10 00:34:40;;;;;;;12.00;5.13;;;;;;;11.33;56.93;101313.47;4982900;28;20034;-76
2022/05/10 00:37:07;;;;;;;10.02;5.20;;;;;;;11.26;57.44;101309.91;4963682;28;20525;-76
2022/05/10 00:39:33;;;;;;;9.68;5.72;;;;;;;11.17;57.80;101315.19;4983804;28;20044;-75
2022/05/10 00:42:05;;;;;;;11.77;6.10;;;;;;;11.13;58.39;101316.03;4981193;28;20035;-76
2022/05/10 00:44:37;;;;;;;10.52;5.65;;;;;;;11.08;57.94;101310.75;4971314;28;20041;-75
2022/05/10 00:47:17;;;;;;;8.90;4.90;;;;;;;10.97;58.87;101318.59;4983668;28;20485;-76
2022/05/10 00:49:55;;;;;;;11.90;6.38;;;;;;;10.91;58.72;101310.66;4982093;28;20085;-76
2022/05/10 00:52:29;;;;;;;9.90;5.00;;;;;;;10.88;58.81;101310.66;4966470;28;20445;-77
2022/05/10 00:55:05;;;;;;;13.25;6.75;;;;;;;10.83;58.93;101304.47;4984793;28;20042;-76
2022/05/10 00:57:52;;;;;;;8.63;4.90;;;;;;;10.74;58.79;101304.41;4981048;28;20034;-76
2022/05/10 01:00:23;;;;;;;12.18;5.85;;;;;;;10.61;58.95;101303.47;4980804;28;20038;-76
2022/05/10 01:03:00;;;;;;;8.57;4.90;;;;;;;10.57;59.75;101296.38;4963615;28;20112;-76
2022/05/10 01:05:32;;;;;;;10.30;5.22;;;;;;;10.51;59.68;101297.25;4958046;28;20041;-76
2022/05/10 01:08:26;;;;;;;10.80;4.97;;;;;;;10.47;60.09;101291.94;4982135;28;20058;-76
2022/05/10 01:10:54;;;;;;;11.65;5.72;;;;;;;10.46;60.49;101298.09;4982335;28;20126;-75
2022/05/10 01:13:40;;;;;;;11.18;5.80;;;;;;;10.42;60.83;101285.72;4980190;28;20042;-76
2022/05/10 01:16:09;;;;;;;11.02;5.78;;;;;;;10.39;60.34;101291.00;4986518;28;20035;-76
2022/05/10 01:18:36;;;;;;;11.40;5.75;;;;;;;10.34;60.34;101296.22;4980155;28;20045;-76
2022/05/10 01:21:17;;;;;;;12.02;5.35;;;;;;;10.33;60.57;101286.56;4984935;28;20038;-76
2022/05/10 01:24:18;;;;;;;9.00;5.10;;;;;;;10.30;61.00;101287.44;4973421;28;20034;-76
2022/05/10 01:27:18;;;;;;;9.85;5.80;;;;;;;10.23;61.07;101285.56;4971324;28;20061;-76
2022/05/10 01:29:50;;;;;;;9.27;5.32;;;;;;;10.19;60.87;101288.16;4983389;28;20043;-77
2022/05/10 01:35:12;;;;;;;10.65;5.60;;;;;;;10.14;61.21;101272.34;4983648;28;20030;-76
2022/05/10 01:37:44;;;;;;;11.10;5.55;;;;;;;10.12;61.31;101275.84;4981782;28;20031;-76
2022/05/10 01:40:22;;;;;;;9.30;5.53;;;;;;;10.09;61.86;101277.56;4983043;28;20085;-76
2022/05/10 01:43:08;;;;;;;12.70;7.18;;;;;;;10.05;62.50;101278.41;4982708;28;20038;-76
2022/05/10 01:45:43;;;;;;;9.50;5.18;;;;;;;9.91;62.37;101272.16;4979904;28;20045;-76
2022/05/10 01:48:14;;;;;;;9.30;5.50;;;;;;;9.82;62.45;101274.69;4980313;28;20126;-75
2022/05/10 01:50:46;;;;;;;9.90;5.53;;;;;;;9.75;62.75;101264.97;4970588;28;20034;-76
2022/05/10 01:53:14;;;;;;;11.00;5.82;;;;;;;9.75;62.65;101270.25;4983256;28;20117;-75
2022/05/10 01:55:44;;;;;;;11.32;5.40;;;;;;;9.71;63.60;101276.34;4983992;28;20039;-76
2022/05/10 01:58:14;;;;;;;12.02;5.93;;;;;;;9.61;63.18;101270.09;4983080;28;20038;-76
2022/05/10 02:00:43;;;;;;;10.60;5.50;;;;;;;9.48;63.18;101277.00;4981268;28;20077;-75
2022/05/10 02:03:20;;;;;;;12.20;5.78;;;;;;;9.41;64.31;101268.16;4983341;28;20052;-76
2022/05/10 02:05:53;;;;;;;9.23;5.55;;;;;;;9.41;64.53;101264.66;4984187;28;20542;-75
2022/05/10 02:08:34;;;;;;;9.40;5.28;;;;;;;9.35;64.87;101265.47;4984376;28;20038;-76
2022/05/10 02:11:12;;;;;;;10.00;6.00;;;;;;;9.28;64.32;101262.75;4986019;28;20034;-76
2022/05/10 02:13:42;;;;;;;11.73;5.57;;;;;;;9.21;65.30;101253.88;4965794;28;20038;-76
2022/05/10 02:16:24;;;;;;;12.43;6.65;;;;;;;9.18;65.36;101251.22;4986471;28;20073;-75
2022/05/10 02:19:07;;;;;;;9.52;5.65;;;;;;;9.15;66.31;101257.34;4975706;28;20053;-75
2022/05/10 02:21:38;;;;;;;9.88;5.70;;;;;;;9.17;66.39;101255.63;4984102;28;20049;-76
2022/05/10 02:24:12;;;;;;;9.27;6.53;;;;;;;9.16;66.77;101250.31;4983528;28;20039;-76
2022/05/10 02:26:42;;;;;;;15.95;5.90;;;;;;;9.16;66.59;101250.31;4983915;28;20166;-76
2022/05/10 02:29:26;;;;;;;16.10;6.47;;;;;;;9.13;66.90;101247.66;4976406;28;20039;-76
2022/05/10 02:34:45;;;;;;;9.20;5.90;;;;;;;9.09;66.49;101252.03;4985553;28;20042;-76
2022/05/10 02:37:12;;;;;;;11.93;5.53;;;;;;;9.06;66.43;101251.97;4982788;28;20448;-76
2022/05/10 02:39:38;;;;;;;10.38;6.00;;;;;;;8.98;67.13;101256.25;4984947;28;20057;-76
2022/05/10 02:42:04;;;;;;;13.75;6.13;;;;;;;8.84;67.55;101249.94;4983836;28;20581;-76
2022/05/10 02:44:30;;;;;;;13.15;6.10;;;;;;;8.80;67.23;101246.38;4983488;28;20085;-76
2022/05/10 02:46:55;;;;;;;12.95;5.90;;;;;;;8.79;67.31;101239.34;4985348;28;20069;-77
2022/05/10 02:49:21;;;;;;;13.52;6.38;;;;;;;8.78;66.88;101241.09;4964962;28;20658;-76
2022/05/10 02:51:46;;;;;;;10.57;6.93;;;;;;;8.77;67.14;101236.69;4985562;28;20070;-76
2022/05/10 02:54:12;;;;;;;10.60;6.53;;;;;;;8.78;66.99;101234.97;4986336;28;20030;-76
2022/05/10 02:56:40;;;;;;;12.60;6.07;;;;;;;8.72;67.84;101230.53;4984152;28;20119;-76
2022/05/10 02:59:27;;;;;;;11.05;5.60;;;;;;;8.62;68.63;101236.53;4974405;28;20030;-76
2022/05/10 03:02:00;;;;;;;12.35;5.57;;;;;;;8.46;68.65;101235.44;4974041;28;20073;-76
2022/05/10 03:04:36;;;;;;;9.65;5.68;;;;;;;8.43;68.57;101232.75;4982211;28;20657;-76
2022/05/10 03:07:03;;;;;;;13.40;7.97;;;;;;;8.44;69.58;101236.28;4983555;28;20638;-76
2022/05/10 03:09:29;;;;;;;12.13;5.88;;;;;;;8.42;69.45;101240.63;4984977;28;20179;-76
2022/05/10 03:11:54;;;;;;;8.98;5.45;;;;;;;8.41;69.17;101239.75;4981351;28;20071;-75
2022/05/10 03:14:19;;;;;;;13.82;6.30;;;;;;;8.34;69.88;101233.47;4984985;28;20040;-76
2022/05/10 03:16:45;;;;;;;9.75;5.78;;;;;;;8.39;69.84;101232.66;4970802;28;20035;-76
2022/05/10 03:19:10;;;;;;;17.17;6.80;;;;;;;8.37;69.59;101239.66;4985560;28;20046;-75
2022/05/10 03:21:37;;;;;;;12.77;6.40;;;;;;;8.32;70.58;101239.56;4987436;28;20045;-76
2022/05/10 03:24:04;;;;;;;12.60;6.18;;;;;;;8.28;70.78;101233.41;4985405;28;20504;-76
2022/05/10 03:26:29;;;;;;;11.63;7.35;;;;;;;8.28;71.12;101233.41;4981741;28;20051;-76
2022/05/10 03:28:55;;;;;;;14.30;6.60;;;;;;;8.35;70.35;101227.34;4967218;28;20030;-76
2022/05/10 03:31:22;;;;;;;10.00;6.43;;;;;;;8.42;70.21;101230.09;4982182;28;20034;-76
2022/05/10 03:34:53;;;;;;;12.95;7.15;;;;;;;8.49;69.85;101232.84;4983335;28;20034;-76
2022/05/10 03:36:33;;;;;;;18.00;8.15;;;;;;;8.50;70.21;101223.19;4984608;28;20045;-76
2022/05/10 03:38:59;;;;;;;14.05;7.38;;;;;;;8.51;69.67;101231.13;4983079;28;20129;-76
2022/05/10 03:41:26;;;;;;;15.48;7.78;;;;;;;8.57;69.87;101227.69;4967460;28;20054;-76
2022/05/10 03:43:52;;;;;;;13.73;6.97;;;;;;;8.64;69.51;101221.63;4975985;28;20042;-75
2022/05/10 03:46:17;;;;;;;16.30;7.72;;;;;;;8.71;69.21;101225.22;4988705;28;20034;-76
2022/05/10 03:48:44;;;;;;;11.85;6.63;;;;;;;8.73;69.70;101227.00;4970180;28;20489;-76
2022/05/10 03:51:10;;;;;;;12.70;6.28;;;;;;;8.80;69.38;101232.34;4982583;28;20169;-76
2022/05/10 03:53:35;;;;;;;13.90;6.80;;;;;;;8.87;69.77;101228.91;4984395;28;20509;-76
2022/05/10 03:56:00;;;;;;;13.43;6.50;;;;;;;8.94;69.54;101226.38;4983583;28;20378;-76
2022/05/10 03:58:26;;;;;;;11.32;8.38;;;;;;;9.04;69.16;101227.38;4981177;28;20725;-76
2022/05/10 04:00:51;;;;;;;14.93;7.85;;;;;;;9.11;69.05;101230.94;4973909;28;20417;-76
2022/05/10 04:03:16;;;;;;;12.65;7.65;;;;;;;9.16;68.59;101221.34;4985568;28;20758;-76
2022/05/10 04:05:41;;;;;;;11.95;7.53;;;;;;;9.27;68.51;101219.69;4981824;28;20401;-76
2022/05/10 04:08:07;;;;;;;15.65;7.07;;;;;;;9.37;68.43;101212.78;4981579;28;20513;-76
2022/05/10 04:10:32;;;;;;;11.70;7.68;;;;;;;9.45;68.34;101219.00;4989655;28;20493;-76
2022/05/10 04:12:58;;;;;;;13.63;7.90;;;;;;;9.53;67.61;101217.31;4987431;28;20034;-76
2022/05/10 04:15:23;;;;;;;13.07;7.60;;;;;;;9.52;67.43;101218.19;4977197;28;20069;-76
2022/05/10 04:17:49;;;;;;;15.48;8.18;;;;;;;9.55;67.88;101210.31;4983066;28;20122;-77
2022/05/10 04:20:15;;;;;;;14.10;8.48;;;;;;;9.67;68.33;101214.81;4985667;28;20056;-77
2022/05/10 04:22:41;;;;;;;16.95;8.40;;;;;;;9.76;67.92;101214.00;4985468;28;20073;-77
2022/05/10 04:25:07;;;;;;;17.13;9.95;;;;;;;9.87;67.60;101201.78;4972849;28;20078;-77
2022/05/10 04:27:33;;;;;;;23.02;13.45;;;;;;;9.98;67.30;101207.13;4984794;28;20030;-77
2022/05/10 04:29:58;;;;;;;20.77;13.18;;;;;;;10.10;67.31;101207.22;4985135;28;20030;-77
2022/05/10 04:32:24;;;;;;;26.38;16.13;;;;;;;10.22;66.84;101204.69;4983330;28;20037;-77
2022/05/10 04:34:49;;;;;;;24.75;16.25;;;;;;;10.30;66.98;101199.47;4986735;28;20481;-77
2022/05/10 04:37:14;;;;;;;26.73;16.48;;;;;;;10.41;66.18;101205.69;4976601;28;20038;-77
2022/05/10 04:42:24;;;;;;;28.48;15.25;;;;;;;10.55;66.47;101195.19;4989554;28;20035;-77
2022/05/10 04:44:49;;;;;;;24.33;14.13;;;;;;;10.64;65.90;101208.44;4989690;28;20546;-77
2022/05/10 04:47:15;;;;;;;24.52;14.18;;;;;;;10.74;66.02;101206.72;4989563;28;20527;-77
2022/05/10 04:49:40;;;;;;;25.30;14.75;;;;;;;10.80;66.20;101208.50;4988887;28;20068;-77
2022/05/10 04:52:06;;;;;;;24.40;14.60;;;;;;;10.89;66.09;101209.41;4989353;28;20035;-77
2022/05/10 04:54:31;;;;;;;23.17;12.95;;;;;;;10.96;65.61;101211.19;4987504;28;20494;-77
2022/05/10 04:56:56;;;;;;;22.35;13.50;;;;;;;11.05;65.49;101210.34;4986496;28;20026;-77
2022/05/10 04:59:22;;;;;;;20.88;13.57;;;;;;;11.14;65.31;101214.78;4990255;28;20062;-76
2022/05/10 05:01:47;;;;;;;25.60;18.00;;;;;;;11.27;65.00;101210.41;4991500;28;20038;-77
2022/05/10 05:04:12;;;;;;;28.83;16.73;;;;;;;11.41;64.50;101208.66;4989067;28;20102;-77
2022/05/10 05:06:40;;;;;;;23.85;14.10;;;;;;;11.55;64.46;101211.31;4981613;28;20117;-77
2022/05/10 05:09:06;;;;;;;21.27;12.50;;;;;;;11.62;64.81;101206.03;4984761;28;20043;-77
2022/05/10 05:11:32;;;;;;;20.63;12.50;;;;;;;11.66;64.90;101206.91;4952789;28;20039;-77
2022/05/10 05:13:57;;;;;;;19.42;12.45;;;;;;;11.73;64.54;101203.38;4984944;28;20177;-77
2022/05/10 05:16:23;;;;;;;20.88;13.82;;;;;;;11.82;64.38;101206.03;4982743;28;20053;-77
2022/05/10 05:18:48;;;;;;;26.50;13.57;;;;;;;11.94;64.44;101205.16;4984080;28;20077;-76
2022/05/10 05:21:14;;;;;;;22.27;13.80;;;;;;;12.01;64.42;101206.91;4981051;28;20413;-77
2022/05/10 05:23:40;;;;;;;21.75;12.95;;;;;;;12.07;64.45;101201.59;4984930;28;20523;-77
2022/05/10 05:26:05;;;;;;;24.60;13.80;;;;;;;12.10;64.10;101198.06;4988533;28;20049;-77
2022/05/10 05:28:31;;;;;;;20.70;12.48;;;;;;;12.24;64.35;101193.66;4972299;28;20041;-77
2022/05/10 05:30:58;;;;;;;22.77;13.15;;;;;;;12.44;63.58;101196.25;4989093;28;20429;-77
2022/05/10 05:33:23;;;;;;;22.17;13.45;;;;;;;12.60;63.18;101196.19;4982984;28;20034;-77
2022/05/10 05:35:49;;;;;;;23.02;13.75;;;;;;;12.75;62.65;101197.88;4972023;28;20085;-76
2022/05/10 05:38:14;;;;;;;31.88;19.80;;;;;;;12.84;62.62;101195.22;4987487;28;20041;-77
2022/05/10 05:40:40;;;;;;;34.13;21.13;;;;;;;13.01;62.16;101193.34;4956543;28;20035;-77
2022/05/10 05:43:06;;;;;;;26.88;14.38;;;;;;;13.10;61.52;101193.31;4990934;28;20040;-77
2022/05/10 05:45:32;;;;;;;21.00;12.30;;;;;;;13.18;61.82;101195.91;4994188;28;20117;-77
2022/05/10 05:48:00;;;;;;;20.60;13.25;;;;;;;13.28;61.37;101191.44;4991532;28;20026;-76
2022/05/10 05:50:26;;;;;;;23.95;16.08;;;;;;;13.46;61.26;101193.06;4990101;28;20041;-77
2022/05/10 05:52:52;;;;;;;24.77;15.95;;;;;;;13.61;60.72;101189.44;4986688;28;20031;-77
2022/05/10 05:55:18;;;;;;;24.52;15.23;;;;;;;13.68;60.61;101188.50;4986747;28;20454;-77
2022/05/10 05:57:44;;;;;;;21.02;16.08;;;;;;;13.80;60.50;101181.28;4985679;28;20037;-77
2022/05/10 06:00:17;;;;;;;15.88;11.57;;;;;;;13.98;59.97;101174.94;4984684;28;20088;-77
2022/05/10 06:02:43;;;;;;;21.60;13.40;;;;;;;14.08;60.17;101177.50;4969833;28;20038;-77
2022/05/10 06:05:09;;;;;;;19.23;13.10;;;;;;;14.22;59.66;101176.44;4988919;28;20035;-77
2022/05/10 06:07:34;;;;;;;16.48;10.13;;;;;;;14.36;59.83;101171.00;4987893;28;20038;-76
2022/05/10 06:09:59;;;;;;;12.00;8.23;;;;;;;14.40;59.84;101167.41;4985038;28;20030;-77
2022/05/10 06:12:25;;;;;;;12.82;7.45;;;;;;;14.47;59.82;101166.44;4971154;28;20543;-77
2022/05/10 06:14:51;;;;;;;13.70;7.57;;;;;;;14.65;59.82;101162.72;4987053;28;20479;-77
2022/05/10 06:17:17;;;;;;;11.23;6.68;;;;;;;14.81;59.18;101168.69;4976850;28;20042;-77
2022/05/10 06:19:43;;;;;;;10.45;6.32;;;;;;;14.94;59.42;101171.19;4984106;28;20041;-77
2022/05/10 06:22:12;;;;;;;12.57;6.90;;;;;;;15.10;58.52;101167.41;4990190;28;20034;-77
2022/05/10 06:24:38;;;;;;;10.23;6.75;;;;;;;15.27;58.58;101159.16;4984525;28;20042;-77
2022/05/10 06:27:06;;;;;;;12.20;8.10;;;;;;;15.47;57.67;101170.38;4976424;28;20072;-77
2022/05/10 06:29:31;;;;;;;9.80;6.65;;;;;;;15.66;57.33;101162.97;4976659;28;20034;-77
2022/05/10 06:31:57;;;;;;;14.35;6.25;;;;;;;15.84;56.60;101152.94;4993516;28;20556;-77
2022/05/10 06:34:23;;;;;;;12.98;5.00;;;;;;;15.96;56.14;101153.59;4991651;28;20410;-77
2022/05/10 06:36:48;;;;;;;10.55;5.22;;;;;;;16.12;55.96;101146.19;4977075;28;20038;-76
2022/05/10 06:39:13;;;;;;;13.70;6.03;;;;;;;16.29;55.71;101144.97;4992599;28;20485;-77
2022/05/10 06:41:39;;;;;;;9.48;5.72;;;;;;;16.41;55.09;101144.75;4993823;28;20034;-77
2022/05/10 06:44:05;;;;;;;8.65;4.57;;;;;;;16.52;54.64;101141.84;4993641;28;20548;-76
2022/05/10 06:46:32;;;;;;;8.15;4.22;;;;;;;16.53;54.64;101144.50;4989169;28;20138;-77
2022/05/10 06:48:59;;;;;;;10.90;4.65;;;;;;;16.65;54.50;101146.88;4983560;28;20030;-77
2022/05/10 06:51:25;;;;;;;7.68;4.15;;;;;;;16.86;54.31;101142.03;4989761;28;20046;-76
2022/05/10 06:53:51;;;;;;;9.05;4.50;;;;;;;17.00;53.62;101139.94;4988194;28;20042;-77
2022/05/10 06:56:17;;;;;;;9.85;4.68;;;;;;;17.17;53.17;101136.88;4989268;28;20066;-77
2022/05/10 06:58:43;;;;;;;6.80;4.05;;;;;;;17.31;52.58;101145.41;4971797;28;20042;-77
2022/05/10 07:01:12;;;;;;;7.07;4.47;;;;;;;17.35;52.22;101129.34;4990324;28;20038;-77
2022/05/10 07:03:49;;;;;;;8.95;3.90;;;;;;;17.44;52.02;101139.78;4990849;28;20049;-77
2022/05/10 07:06:17;;;;;;;6.80;4.05;;;;;;;17.49;51.84;101133.41;4991122;28;20034;-77
2022/05/10 07:08:43;;;;;;;10.88;4.60;;;;;;;17.65;51.86;101136.56;4989311;28;20041;-77
2022/05/10 07:11:09;;;;;;;10.60;5.82;;;;;;;17.83;51.56;101132.56;4990817;28;20033;-76
2022/05/10 07:17:19;;;;;;;9.90;4.70;;;;;;;18.09;50.34;101122.97;5019708;28;20049;-77
2022/05/10 07:19:50;;;;;;;9.32;4.72;;;;;;;18.29;50.09;101130.44;5018154;28;20484;-77
2022/05/10 07:26:06;;;;;;;8.68;3.85;;;;;;;18.50;49.43;101123.59;5002249;28;20053;-77
2022/05/10 07:29:16;;;;;;;6.45;3.65;;;;;;;18.64;49.13;101126.72;4992082;28;20041;-77
2022/05/10 07:32:52;;;;;;;10.32;3.63;;;;;;;18.77;48.79;101119.25;5019629;28;20095;-77
2022/05/10 07:39:18;;;;;;;;;;;;;;;;;;;;;
2022/05/10 07:42:26;;;;;;;9.45;3.35;;;;;;;19.31;46.80;101112.16;5007205;28;20050;-77
2022/05/10 07:45:23;;;;;;;6.63;3.33;;;;;;;19.33;47.12;101111.19;5017502;28;20517;-77
2022/05/10 07:48:26;;;;;;;6.32;3.45;;;;;;;19.52;46.78;101107.88;5020773;28;20037;-77
2022/05/10 07:54:03;;;;;;;7.90;4.88;;;;;;;19.91;46.50;101106.56;4973677;28;20053;-77
2022/05/10 07:56:28;;;;;;;9.48;5.43;;;;;;;19.94;46.11;101105.56;4972175;28;20109;-77
2022/05/10 07:59:15;;;;;;;10.95;5.78;;;;;;;20.19;45.58;101102.84;4980417;28;20489;-75
2022/05/10 08:01:46;;;;;;;7.03;3.67;;;;;;;20.43;45.89;101101.03;4970944;28;20778;-77
2022/05/10 08:04:47;;;;;;;7.80;3.42;;;;;;;20.58;44.69;101095.13;4969421;28;20118;-77
2022/05/10 08:07:37;;;;;;;9.52;6.68;;;;;;;20.67;45.17;101093.03;4915610;29;20048;-77
2022/05/10 08:21:58;;;;;;;;;;;;;;;;;;;;;
2022/05/10 08:32:10;;;;;;;13.75;7.85;;;;;;;21.82;41.57;101081.09;4929770;28;20046;-77
2022/05/10 08:34:39;;;;;;;17.30;9.00;;;;;;;21.98;41.53;101075.91;4969229;28;20035;-77
2022/05/10 08:37:38;;;;;;;;;;;;;;;22.04;41.08;101070.25;4962017;28;20043;-78
2022/05/10 08:40:12;;;;;;;6.88;3.10;;;;;;;22.01;41.69;101077.59;4957076;28;19920;-78
2022/05/10 08:42:46;;;;;;;6.75;3.25;;;;;;;22.15;41.42;101071.59;4955179;28;20039;-78
2022/05/10 08:45:11;;;;;;;5.32;3.30;;;;;;;22.16;41.37;101065.25;4969809;28;20042;-78
2022/05/10 08:47:40;;;;;;;5.43;3.20;;;;;;;22.25;40.81;101065.75;4955686;28;20405;-77
2022/05/10 08:50:09;;;;;;;5.82;3.53;;;;;;;22.33;40.67;101064.53;4955051;28;20035;-77
2022/05/10 08:52:38;;;;;;;5.55;3.45;;;;;;;22.41;40.51;101062.34;4966700;28;20058;-77
2022/05/10 08:55:06;;;;;;;6.22;3.65;;;;;;;22.52;40.69;101063.56;4952281;28;20074;-77
2022/05/10 08:57:45;;;;;;;7.03;3.70;;;;;;;22.59;40.71;101058.78;4953756;28;20046;-77
2022/05/10 09:00:18;;;;;;;8.25;3.95;;;;;;;22.62;40.64;101055.94;4951455;28;20031;-76
2022/05/10 09:02:56;;;;;;;6.85;3.65;;;;;;;22.71;39.87;101050.09;4970666;28;20027;-77
2022/05/10 09:05:41;;;;;;;7.10;4.13;;;;;;;22.78;39.79;101049.81;4954909;28;20098;-78
2022/05/10 09:08:09;;;;;;;5.95;3.63;;;;;;;22.94;39.56;101038.22;4954593;28;20155;-77
2022/05/10 09:10:50;;;;;;;19.35;8.43;;;;;;;23.10;39.71;101042.88;4970137;28;20081;-77
2022/05/10 09:13:18;;;;;;;15.40;10.30;;;;;;;23.21;39.70;101042.31;4959409;28;20529;-77
2022/05/10 09:16:05;;;;;;;20.35;11.18;;;;;;;23.38;39.67;101042.34;4972969;28;20039;-77
2022/05/10 09:18:45;;;;;;;16.23;9.38;;;;;;;23.59;39.43;101033.13;4955393;29;20031;-77
2022/05/10 09:21:16;;;;;;;8.30;5.00;;;;;;;23.66;38.83;101030.09;4957020;28;20042;-77
2022/05/10 09:24:07;;;;;;;15.55;4.43;;;;;;;23.65;38.89;101029.25;4955156;28;20068;-77
2022/05/10 09:26:37;;;;;;;7.70;3.78;;;;;;;23.63;38.85;101023.94;4954259;29;20043;-77
2022/05/10 09:29:31;;;;;;;7.38;4.35;;;;;;;23.66;38.54;101019.31;4957566;28;20405;-77
2022/05/10 09:34:53;;;;;;;7.50;3.40;;;;;;;23.68;38.80;101012.03;4956448;29;20041;-77
2022/05/10 09:37:35;;;;;;;9.73;4.53;;;;;;;23.81;37.97;101010.47;4969639;28;20117;-77
2022/05/10 09:40:17;;;;;;;5.63;3.35;;;;;;;23.67;38.37;101013.88;4956527;28;20053;-77
2022/05/10 09:42:46;;;;;;;9.15;3.92;;;;;;;23.74;37.81;101009.06;4957274;28;20565;-77
2022/05/10 09:45:24;;;;;;;5.95;3.90;;;;;;;23.78;37.79;101005.25;4953363;29;20058;-78
2022/05/10 09:48:00;;;;;;;10.32;6.55;;;;;;;24.00;37.31;101004.97;4972158;28;20031;-77
2022/05/10 09:50:30;;;;;;;5.47;3.65;;;;;;;24.26;36.86;100999.00;4971730;28;20394;-77
2022/05/10 09:53:20;;;;;;;6.80;5.10;;;;;;;24.56;36.63;101000.06;4954296;28;20164;-77
2022/05/10 09:56:06;;;;;;;6.63;4.80;;;;;;;24.80;35.52;100997.78;4956189;28;20394;-77
2022/05/10 09:58:36;;;;;;;6.50;4.65;;;;;;;24.90;36.12;100994.47;4954815;28;20490;-77
2022/05/10 10:01:05;;;;;;;6.65;4.68;;;;;;;25.10;35.76;100992.44;4957445;28;20126;-77
2022/05/10 10:03:37;;;;;;;5.63;3.53;;;;;;;25.24;34.31;100986.22;4970412;28;20062;-78
2022/05/10 10:06:21;;;;;;;4.32;3.20;;;;;;;24.91;34.33;100979.97;4955224;28;20027;-78
2022/05/10 10:08:53;;;;;;;5.97;4.47;;;;;;;25.22;34.11;100977.34;4975914;28;20466;-78
2022/05/10 10:11:21;;;;;;;7.45;4.97;;;;;;;25.41;34.04;100982.47;4977449;28;20051;-78
2022/05/10 10:13:51;;;;;;;7.43;4.78;;;;;;;25.47;32.29;100980.28;4966204;28;20043;-78
2022/05/10 10:16:24;;;;;;;4.85;2.75;;;;;;;25.70;32.28;100976.16;4958179;28;20041;-78
2022/05/10 10:18:53;;;;;;;6.32;2.67;;;;;;;25.80;32.18;100971.91;4962081;28;20031;-79
2022/05/10 10:21:26;;;;;;;5.40;2.53;;;;;;;25.73;31.43;100967.00;4974347;28;20073;-77
2022/05/10 10:23:56;;;;;;;5.32;2.53;;;;;;;25.78;31.82;100968.44;4954687;28;20046;-78
2022/05/10 10:26:43;;;;;;;4.97;2.70;;;;;;;25.92;31.84;100969.44;4957744;28;20074;-77
2022/05/10 10:29:36;;;;;;;6.60;4.75;;;;;;;26.18;31.23;100960.50;4957087;28;20118;-79
2022/05/10 10:32:08;;;;;;;4.65;2.30;;;;;;;25.95;31.25;100959.28;4975252;28;20138;-78
2022/05/10 10:34:48;;;;;;;9.43;4.32;;;;;;;26.05;30.14;100959.56;4961266;28;20051;-78
2022/05/10 10:37:22;;;;;;;6.00;2.35;;;;;;;26.11;30.49;100952.91;4961319;28;20102;-79
2022/05/10 10:40:08;;;;;;;6.28;2.13;;;;;;;26.09;30.64;100954.81;4957593;28;20059;-78
2022/05/10 10:42:56;;;;;;;5.72;1.98;;;;;;;25.91;30.82;100954.16;4956582;28;20059;-78
2022/05/10 10:45:34;;;;;;;6.80;1.85;;;;;;;26.02;29.65;100954.38;4973013;28;20050;-77
2022/05/10 10:48:23;;;;;;;4.97;2.13;;;;;;;25.88;29.96;100948.94;4959348;28;20122;-78
2022/05/10 10:50:49;;;;;;;6.35;2.05;;;;;;;26.01;30.61;100949.91;4964402;28;20095;-78
2022/05/10 10:56:06;;;;;;;5.78;2.50;;;;;;;26.57;28.09;100936.38;4993009;28;20049;-82
2022/05/10 10:58:56;;;;;;;5.65;2.20;;;;;;;26.67;27.99;100940.19;4994561;28;20038;-81
2022/05/10 11:01:45;;;;;;;4.75;2.03;;;;;;;26.64;27.92;100925.00;4999920;28;20684;-80
2022/05/10 11:04:29;;;;;;;3.85;1.65;;;;;;;26.68;28.39;100923.00;4995123;28;20052;-80
2022/05/10 11:06:54;;;;;;;5.53;3.88;;;;;;;26.86;28.71;100923.59;4995771;28;20053;-80
2022/05/10 11:09:45;;;;;;;3.83;2.10;;;;;;;26.96;28.41;100918.38;4994798;28;20393;-80
2022/05/10 11:12:44;;;;;;;4.18;2.10;;;;;;;27.00;28.79;100909.94;4985407;28;20061;-80
2022/05/10 11:15:33;;;;;;;5.03;2.22;;;;;;;26.88;28.45;100899.94;4991935;28;20066;-80
2022/05/10 11:18:19;;;;;;;5.78;2.70;;;;;;;27.01;28.49;100909.00;4992350;28;20034;-80
2022/05/10 11:21:27;;;;;;;5.93;3.00;;;;;;;27.22;27.84;100903.06;4974069;28;20076;-79
2022/05/10 11:24:07;;;;;;;7.15;2.15;;;;;;;27.15;28.17;100888.19;4953166;28;20086;-79
2022/05/10 11:27:00;;;;;;;3.63;1.90;;;;;;;27.29;28.29;100896.25;4992124;28;20084;-80
2022/05/10 11:29:52;;;;;;;6.18;4.00;;;;;;;27.67;28.66;100884.53;4992957;28;20041;-80
2022/05/10 11:32:55;;;;;;;6.97;4.97;;;;;;;28.12;28.34;100887.59;4993094;28;20132;-80
2022/05/10 11:35:58;;;;;;;8.18;4.80;;;;;;;28.56;27.00;100880.69;4947863;28;20070;-80
2022/05/10 11:38:50;;;;;;;4.90;2.83;;;;;;;28.93;26.56;100883.28;4993195;28;20045;-80
2022/05/10 11:41:18;;;;;;;8.93;4.75;;;;;;;28.80;26.59;100876.09;4993098;28;20038;-79
2022/05/10 11:44:02;;;;;;;7.35;6.05;;;;;;;29.38;26.55;100884.25;4973642;28;20037;-80
2022/05/10 11:46:36;;;;;;;5.55;2.58;;;;;;;29.92;24.85;100848.19;5001595;28;20045;-81
2022/05/10 11:49:37;;;;;;;7.40;4.70;;;;;;;30.11;24.66;100860.25;4982392;28;20512;-80
2022/05/10 11:52:08;;;;;;;4.75;2.60;;;;;;;30.73;23.84;100854.09;4987306;28;20046;-81
2022/05/10 11:54:39;;;;;;;4.63;2.13;;;;;;;30.98;23.79;100850.13;4991543;28;20128;-80
2022/05/10 11:57:12;;;;;;;5.65;2.60;;;;;;;31.21;24.67;100850.00;4994807;28;20045;-81
2022/05/10 11:59:39;;;;;;;6.82;3.53;;;;;;;31.18;24.17;100847.53;4977530;28;20037;-81
2022/05/10 12:02:07;;;;;;;6.68;2.58;;;;;;;30.51;24.57;100855.06;4990167;28;20042;-81
2022/05/10 12:04:45;;;;;;;6.13;4.25;;;;;;;30.47;24.12;100850.88;4975751;28;20038;-81
2022/05/10 12:07:19;;;;;;;4.68;2.60;;;;;;;30.66;24.05;100841.13;4994748;28;20050;-80
2022/05/10 12:10:02;;;;;;;4.90;3.05;;;;;;;30.59;23.22;100832.63;4994430;28;20042;-80
2022/05/10 12:12:30;;;;;;;4.38;2.60;;;;;;;30.23;23.97;100825.69;4973142;28;20092;-81
2022/05/10 12:21:20;;;;;;;5.90;3.75;;;;;;;31.01;23.49;100822.59;4944311;28;20053;-80
2022/05/10 12:24:26;;;;;;;5.00;2.38;;;;;;;31.06;22.56;100818.63;4973511;28;20497;-81
2022/05/10 12:27:19;;;;;;;5.30;3.70;;;;;;;31.50;22.69;100822.03;4975496;28;20465;-80
2022/05/10 12:29:52;;;;;;;4.95;3.45;;;;;;;32.07;22.38;100798.63;4992828;28;20042;-80
2022/05/10 12:32:39;;;;;;;3.33;2.00;;;;;;;32.14;20.35;100798.91;4991062;28;20042;-80
2022/05/10 12:35:10;;;;;;;5.40;2.35;;;;;;;32.22;20.60;100797.19;4973488;28;20038;-80
2022/05/10 12:37:38;;;;;;;;;;;;;;;32.59;19.71;100793.75;4994284;28;20504;-81
2022/05/10 12:40:21;;;;;;;4.05;2.10;;;;;;;32.75;19.08;100793.16;4982040;28;19917;-80
2022/05/10 12:43:10;;;;;;;4.90;3.40;;;;;;;33.11;19.19;100785.16;4974272;28;20038;-81
2022/05/10 12:46:00;;;;;;;4.75;2.50;;;;;;;33.54;19.15;100789.19;4991120;28;20037;-80